Time;durP1;ratioP1;P1;durP2;ratioP2;P2;SDS_P1;SDS_P2;PMS_P1;PMS_P2;Temp;Humidity;BMP_temperature;BMP_pressure;BME280_temperature;BME280_humidity;BME280_pressure;Samples;Min_cycle;Max_cycle;Signal;HPM_P1;HPM_P2
2022/03/08 00:00:28;;;;;;;3.58;2.65;;;;;;;21.66;33.27;102635.91;5010259;28;20038;-65
2022/03/08 00:02:55;;;;;;;3.37;2.53;;;;;;;21.54;33.55;102628.28;5005864;28;20040;-65
2022/03/08 00:05:22;;;;;;;3.83;2.70;;;;;;;21.44;33.43;102619.56;5012245;28;20669;-66
2022/03/08 00:07:48;;;;;;;3.67;2.78;;;;;;;21.36;33.48;102625.56;5004404;28;20502;-65
2022/03/08 00:10:14;;;;;;;4.05;2.88;;;;;;;21.31;33.71;102623.38;5009202;28;20087;-66
2022/03/08 00:12:40;;;;;;;2.92;2.55;;;;;;;21.29;33.82;102629.81;5008015;28;21071;-65
2022/03/08 00:15:12;;;;;;;4.65;2.58;;;;;;;21.25;33.78;102628.44;5006241;28;20088;-65
2022/03/08 00:17:38;;;;;;;4.15;2.78;;;;;;;21.17;33.81;102617.69;5010011;28;20049;-65
2022/03/08 00:20:06;;;;;;;4.35;3.00;;;;;;;21.16;33.80;102614.19;5006389;28;20124;-65
2022/03/08 00:22:33;;;;;;;4.05;2.83;;;;;;;21.05;33.78;102607.28;5007470;28;20053;-65
2022/03/08 00:25:01;;;;;;;4.55;2.58;;;;;;;21.12;33.85;102618.97;5006722;28;20424;-65
2022/03/08 00:27:29;;;;;;;3.40;2.40;;;;;;;21.11;33.84;102621.75;5007728;28;20030;-65
2022/03/08 00:29:55;;;;;;;3.95;2.80;;;;;;;21.08;33.83;102622.06;5006459;28;20389;-65
2022/03/08 00:32:22;;;;;;;4.47;2.63;;;;;;;21.05;33.99;102623.19;5003639;28;20045;-65
2022/03/08 00:34:48;;;;;;;3.40;2.65;;;;;;;21.06;33.80;102618.72;5010627;28;20115;-65
2022/03/08 00:37:16;;;;;;;3.78;2.45;;;;;;;21.02;33.78;102620.81;5008351;28;20831;-65
2022/03/08 00:39:42;;;;;;;2.88;2.55;;;;;;;20.98;33.84;102629.19;5007645;28;20121;-65
2022/03/08 00:42:11;;;;;;;4.30;2.35;;;;;;;20.94;33.86;102623.34;5005164;28;20025;-65
2022/03/08 00:44:44;;;;;;;3.17;2.47;;;;;;;20.93;33.88;102629.63;5007458;28;20045;-66
2022/03/08 00:47:11;;;;;;;3.05;2.42;;;;;;;20.93;33.95;102626.13;5009886;28;20042;-65
2022/03/08 00:49:40;;;;;;;4.90;2.85;;;;;;;20.89;33.85;102625.59;5008292;28;20630;-65
2022/03/08 00:52:07;;;;;;;3.03;2.60;;;;;;;20.89;33.67;102625.59;5008487;28;20124;-66
2022/03/08 00:54:33;;;;;;;3.45;2.55;;;;;;;20.86;33.76;102617.09;5003104;28;20482;-65
2022/03/08 00:56:59;;;;;;;4.25;2.95;;;;;;;20.85;33.75;102615.44;5008206;28;20100;-65
2022/03/08 00:59:25;;;;;;;3.38;2.50;;;;;;;20.81;33.74;102613.03;5010868;28;20048;-65
2022/03/08 01:01:51;;;;;;;3.92;2.40;;;;;;;20.80;33.75;102613.19;5006372;28;20049;-66
2022/03/08 01:04:17;;;;;;;3.78;2.72;;;;;;;20.78;33.76;102609.84;5010503;28;20233;-65
2022/03/08 01:06:43;;;;;;;3.58;2.55;;;;;;;20.64;33.89;102589.97;5005789;28;20042;-65
2022/03/08 01:09:11;;;;;;;4.13;2.67;;;;;;;20.74;33.85;102606.66;5011086;28;20041;-66
2022/03/08 01:11:36;;;;;;;5.07;2.80;;;;;;;20.73;33.74;102606.81;5005661;28;20038;-65
2022/03/08 01:14:04;;;;;;;3.75;2.45;;;;;;;20.73;33.80;102597.06;5007205;28;20037;-65
2022/03/08 01:16:30;;;;;;;3.70;2.50;;;;;;;20.68;33.93;102598.47;5003491;28;20036;-66
2022/03/08 01:18:56;;;;;;;3.28;2.45;;;;;;;20.69;33.73;102597.50;5006165;28;20038;-65
2022/03/08 01:21:22;;;;;;;3.72;2.40;;;;;;;20.68;33.68;102595.81;5011346;28;20692;-65
2022/03/08 01:23:48;;;;;;;3.17;2.60;;;;;;;20.63;33.84;102590.09;5004979;28;20041;-64
2022/03/08 01:26:17;;;;;;;3.72;2.83;;;;;;;20.60;33.82;102593.03;5007278;28;20091;-65
2022/03/08 01:28:43;;;;;;;5.18;2.90;;;;;;;20.61;33.80;102594.72;5003872;28;20033;-66
2022/03/08 01:31:09;;;;;;;3.13;2.42;;;;;;;20.58;33.82;102590.53;5009861;28;20454;-65
2022/03/08 01:33:35;;;;;;;3.25;2.50;;;;;;;20.56;33.81;102589.84;5005477;28;20046;-65
2022/03/08 01:36:04;;;;;;;2.90;2.30;;;;;;;20.57;33.75;102601.28;5005833;28;20056;-64
2022/03/08 01:38:30;;;;;;;4.07;2.43;;;;;;;20.54;33.67;102590.97;5008360;28;20049;-65
2022/03/08 01:40:57;;;;;;;3.30;2.60;;;;;;;20.52;33.70;102591.13;5007492;28;20039;-65
2022/03/08 01:43:23;;;;;;;3.15;2.35;;;;;;;20.52;33.75;102591.94;4993286;28;20029;-66
2022/03/08 01:45:52;;;;;;;3.95;2.65;;;;;;;20.46;33.95;102579.25;5007732;28;20068;-66
2022/03/08 01:48:18;;;;;;;3.28;2.55;;;;;;;20.46;33.77;102587.19;5010980;28;20153;-65
2022/03/08 01:50:47;;;;;;;3.17;2.60;;;;;;;20.44;33.71;102575.09;5008116;28;20104;-66
2022/03/08 01:53:13;;;;;;;3.53;2.58;;;;;;;20.45;33.73;102574.13;5007848;28;20037;-68
2022/03/08 01:55:39;;;;;;;2.80;2.25;;;;;;;20.42;33.81;102579.69;5007611;28;21408;-66
2022/03/08 01:58:04;;;;;;;3.28;2.80;;;;;;;20.39;33.74;102574.66;5009875;28;20569;-66
2022/03/08 02:00:31;;;;;;;2.90;2.50;;;;;;;20.37;33.76;102572.16;4993359;28;20086;-66
2022/03/08 02:03:00;;;;;;;3.45;2.60;;;;;;;20.38;33.75;102570.34;5009282;28;20049;-68
2022/03/08 02:05:27;;;;;;;3.33;2.63;;;;;;;20.33;33.75;102565.47;5008042;28;20037;-66
2022/03/08 02:07:53;;;;;;;4.05;2.72;;;;;;;20.33;33.76;102568.13;5006872;28;20710;-66
2022/03/08 02:10:20;;;;;;;3.60;2.63;;;;;;;20.32;33.71;102557.69;5007521;28;20037;-66
2022/03/08 02:12:48;;;;;;;3.15;2.50;;;;;;;20.30;33.80;102544.59;5004154;28;20037;-66
2022/03/08 02:15:20;;;;;;;3.75;2.55;;;;;;;20.29;33.75;102552.66;5005342;28;20289;-66
2022/03/08 02:17:46;;;;;;;3.25;2.40;;;;;;;20.27;33.71;102547.50;5009480;28;20060;-66
2022/03/08 02:20:14;;;;;;;3.78;2.58;;;;;;;20.27;33.62;102547.50;5005178;28;20092;-66
2022/03/08 02:22:44;;;;;;;3.42;2.55;;;;;;;20.25;33.72;102545.97;5008079;28;20084;-67
2022/03/08 02:25:11;;;;;;;2.63;2.30;;;;;;;20.22;33.77;102550.59;5008290;28;20052;-66
2022/03/08 02:27:46;;;;;;;3.10;2.45;;;;;;;20.19;33.74;102548.22;5010012;28;20188;-66
2022/03/08 02:30:13;;;;;;;4.90;2.83;;;;;;;20.16;33.78;102547.69;5010149;28;20037;-66
2022/03/08 02:32:40;;;;;;;3.83;2.42;;;;;;;20.17;33.73;102547.53;5009393;28;20029;-66
2022/03/08 02:35:14;;;;;;;3.92;2.65;;;;;;;20.16;33.83;102547.69;5011171;28;20043;-67
2022/03/08 02:37:49;;;;;;;4.05;2.40;;;;;;;20.14;33.75;102549.63;5005667;28;20034;-66
2022/03/08 02:40:18;;;;;;;3.20;2.50;;;;;;;20.12;33.79;102555.06;5009158;28;20129;-66
2022/03/08 02:42:47;;;;;;;4.25;2.60;;;;;;;20.08;33.77;102553.66;5009690;28;20038;-65
2022/03/08 02:45:15;;;;;;;2.78;2.30;;;;;;;20.09;33.77;102547.38;5007543;28;20120;-67
2022/03/08 02:47:41;;;;;;;3.25;2.38;;;;;;;20.08;33.84;102552.81;5011242;28;20409;-67
2022/03/08 02:50:10;;;;;;;3.03;2.35;;;;;;;20.06;33.71;102550.31;5007908;28;20480;-66
2022/03/08 02:52:37;;;;;;;4.05;2.90;;;;;;;20.03;33.86;102545.31;5010492;28;20757;-66
2022/03/08 02:55:04;;;;;;;3.95;2.67;;;;;;;19.99;33.95;102538.63;5009076;28;20145;-65
2022/03/08 02:57:29;;;;;;;3.28;2.30;;;;;;;20.04;33.74;102551.44;5009247;28;20037;-65
2022/03/08 02:59:55;;;;;;;2.70;2.30;;;;;;;19.99;33.78;102545.72;5010067;28;20470;-65
2022/03/08 03:02:21;;;;;;;3.67;2.63;;;;;;;19.98;33.77;102541.41;5009425;28;20042;-66
2022/03/08 03:04:47;;;;;;;2.95;2.40;;;;;;;19.98;33.78;102544.91;5010097;28;20057;-66
2022/03/08 03:07:14;;;;;;;3.40;2.42;;;;;;;19.97;33.66;102542.41;5008272;28;20078;-65
2022/03/08 03:09:40;;;;;;;3.17;2.47;;;;;;;19.94;33.77;102545.31;5008780;28;20484;-66
2022/03/08 03:12:07;;;;;;;3.25;2.28;;;;;;;19.95;33.72;102539.91;5008429;28;20097;-66
2022/03/08 03:14:32;;;;;;;3.33;2.50;;;;;;;19.92;33.76;102533.03;5006331;28;20793;-65
2022/03/08 03:16:58;;;;;;;3.38;2.65;;;;;;;19.91;33.75;102533.19;5009400;28;21154;-65
2022/03/08 03:19:24;;;;;;;3.05;2.38;;;;;;;19.91;33.79;102535.84;5004564;28;20044;-65
2022/03/08 03:21:49;;;;;;;4.13;2.30;;;;;;;19.88;33.71;102536.94;5009484;28;20357;-66
2022/03/08 03:24:16;;;;;;;3.83;2.63;;;;;;;19.85;33.73;102528.47;5008768;28;20095;-65
2022/03/08 03:26:43;;;;;;;3.63;2.40;;;;;;;19.84;33.83;102535.56;5008997;28;20386;-66
2022/03/08 03:29:09;;;;;;;3.70;2.55;;;;;;;19.84;33.67;102532.09;5008183;28;20488;-66
2022/03/08 03:31:35;;;;;;;3.53;2.58;;;;;;;19.81;33.87;102529.72;5007949;28;20493;-65
2022/03/08 03:34:01;;;;;;;2.22;1.92;;;;;;;19.79;33.84;102535.16;5012516;28;20127;-65
2022/03/08 03:36:27;;;;;;;2.88;2.28;;;;;;;19.82;33.88;102528.75;5007059;28;20504;-66
2022/03/08 03:38:53;;;;;;;2.58;2.25;;;;;;;19.67;33.74;102512.47;5010160;28;20133;-66
2022/03/08 03:41:19;;;;;;;4.20;2.40;;;;;;;19.77;33.84;102528.34;5008252;28;20037;-66
2022/03/08 03:43:44;;;;;;;2.92;2.35;;;;;;;19.66;33.68;102517.88;5008352;28;20521;-65
2022/03/08 03:46:10;;;;;;;3.58;2.50;;;;;;;19.73;33.82;102533.03;5012660;28;20597;-66
2022/03/08 03:48:36;;;;;;;3.00;2.60;;;;;;;19.75;33.85;102530.25;5011377;28;20060;-66
2022/03/08 03:51:02;;;;;;;2.65;2.13;;;;;;;19.71;33.88;102528.88;5009937;28;20103;-66
2022/03/08 03:53:28;;;;;;;3.13;2.15;;;;;;;19.71;33.85;102527.06;5011225;28;20132;-66
2022/03/08 03:55:53;;;;;;;4.85;2.42;;;;;;;19.69;33.88;102533.47;5010038;28;20037;-66
2022/03/08 03:58:19;;;;;;;3.00;2.40;;;;;;;19.68;33.75;102537.91;5006272;28;20041;-66
2022/03/08 04:00:45;;;;;;;3.47;2.50;;;;;;;19.61;33.98;102529.72;5010334;28;20040;-66
2022/03/08 04:03:13;;;;;;;3.70;2.40;;;;;;;19.64;33.83;102531.25;5008091;28;20157;-65
2022/03/08 04:05:39;;;;;;;3.47;2.75;;;;;;;19.66;33.80;102525.81;5005024;28;20048;-66
2022/03/08 04:08:05;;;;;;;2.78;2.30;;;;;;;19.59;33.76;102522.91;5011884;28;20045;-66
2022/03/08 04:10:30;;;;;;;2.58;2.15;;;;;;;19.62;33.95;102525.25;5006826;28;20407;-66
2022/03/08 04:12:56;;;;;;;3.15;2.20;;;;;;;19.59;33.83;102523.72;5006663;28;20037;-66
2022/03/08 04:15:21;;;;;;;2.55;2.30;;;;;;;19.50;33.88;102506.00;5009773;28;20113;-65
2022/03/08 04:17:47;;;;;;;2.72;2.42;;;;;;;19.55;34.00;102514.38;5011388;28;21299;-66
2022/03/08 04:20:13;;;;;;;3.75;2.60;;;;;;;19.55;33.96;102524.13;5010822;28;20338;-65
2022/03/08 04:22:39;;;;;;;3.17;2.22;;;;;;;19.56;33.86;102518.69;5004640;28;20053;-66
2022/03/08 04:25:06;;;;;;;3.20;2.60;;;;;;;19.50;33.88;102519.22;5009687;28;20034;-66
2022/03/08 04:27:36;;;;;;;2.72;2.40;;;;;;;19.51;34.01;102522.69;5004814;28;20060;-64
2022/03/08 04:30:05;;;;;;;4.47;2.50;;;;;;;19.51;33.97;102522.69;5007845;28;20048;-67
2022/03/08 04:32:31;;;;;;;3.40;2.20;;;;;;;19.51;33.88;102525.34;5006919;28;20046;-67
2022/03/08 04:34:57;;;;;;;3.47;2.33;;;;;;;19.48;33.91;102528.25;5011683;28;20045;-67
2022/03/08 04:37:25;;;;;;;3.30;2.33;;;;;;;19.47;33.97;102511.56;5012534;28;20045;-65
2022/03/08 04:39:51;;;;;;;2.75;2.00;;;;;;;19.45;33.94;102517.97;4990061;28;20097;-66
2022/03/08 04:42:17;;;;;;;2.97;2.50;;;;;;;19.44;33.84;102521.59;5010266;28;20034;-66
2022/03/08 04:44:42;;;;;;;4.30;2.40;;;;;;;19.44;33.77;102519.78;5002300;28;20423;-67
2022/03/08 04:47:08;;;;;;;3.38;2.35;;;;;;;19.42;33.98;102528.81;5010236;28;20099;-67
2022/03/08 04:49:34;;;;;;;3.20;2.25;;;;;;;19.41;33.79;102524.50;5006309;28;20030;-67
2022/03/08 04:51:59;;;;;;;3.60;2.72;;;;;;;19.38;33.87;102522.94;5004362;28;20030;-67
2022/03/08 04:54:25;;;;;;;3.17;2.38;;;;;;;19.35;34.02;102515.28;5009938;28;20392;-66
2022/03/08 04:56:51;;;;;;;2.97;2.38;;;;;;;19.39;34.07;102526.41;5006936;28;20042;-67
2022/03/08 04:59:18;;;;;;;3.30;2.30;;;;;;;19.38;34.09;102530.03;5010456;28;20037;-65
2022/03/08 05:01:44;;;;;;;2.58;2.30;;;;;;;19.39;34.10;102527.28;5003854;28;20045;-66
2022/03/08 05:04:10;;;;;;;2.90;2.20;;;;;;;19.42;34.04;102523.53;5006718;28;20038;-65
2022/03/08 05:06:36;;;;;;;3.22;2.40;;;;;;;19.41;34.10;102524.50;5010004;28;20045;-66
2022/03/08 05:09:02;;;;;;;3.53;2.35;;;;;;;19.40;34.15;102528.94;5007348;28;20045;-66
2022/03/08 05:11:28;;;;;;;3.40;2.42;;;;;;;19.39;34.12;102527.28;5004606;28;20069;-65
2022/03/08 05:13:54;;;;;;;3.20;2.40;;;;;;;19.40;34.21;102526.31;5004316;28;20443;-66
2022/03/08 05:16:19;;;;;;;3.55;2.53;;;;;;;19.41;34.11;102524.50;5008281;28;20503;-66
2022/03/08 05:18:45;;;;;;;3.13;2.42;;;;;;;19.54;33.86;102520.63;5006516;28;20048;-66
2022/03/08 05:21:11;;;;;;;2.75;2.17;;;;;;;20.04;33.46;102515.25;5005436;28;20068;-65
2022/03/08 05:23:37;;;;;;;4.18;2.67;;;;;;;20.89;32.34;102510.91;5007489;28;20034;-68
2022/03/08 05:26:04;;;;;;;3.30;2.13;;;;;;;21.50;31.35;102505.00;5008886;28;20065;-65
2022/03/08 05:28:31;;;;;;;3.90;2.67;;;;;;;21.96;30.89;102499.47;5014314;28;20144;-67
2022/03/08 05:30:59;;;;;;;3.15;2.30;;;;;;;22.34;30.06;102501.91;5009140;28;20041;-65
2022/03/08 05:33:25;;;;;;;3.53;2.00;;;;;;;22.55;29.83;102503.22;5012927;28;20042;-67
2022/03/08 05:35:51;;;;;;;3.63;2.65;;;;;;;22.61;30.00;102501.72;5012939;28;20064;-67
2022/03/08 05:38:17;;;;;;;3.42;2.67;;;;;;;22.42;30.04;102481.56;5012396;28;20033;-67
2022/03/08 05:40:43;;;;;;;2.65;2.35;;;;;;;22.22;30.77;102507.47;5010420;28;20127;-67
2022/03/08 05:43:09;;;;;;;4.35;2.38;;;;;;;22.01;30.91;102504.28;5006937;28;20038;-67
2022/03/08 05:45:35;;;;;;;2.72;2.40;;;;;;;21.81;31.16;102506.28;5013209;28;20048;-67
2022/03/08 05:48:00;;;;;;;3.30;2.55;;;;;;;21.65;31.64;102512.28;5009955;28;20071;-66
2022/03/08 05:50:26;;;;;;;3.40;2.47;;;;;;;21.50;31.73;102505.81;5015245;28;20048;-67
2022/03/08 05:52:52;;;;;;;3.22;2.20;;;;;;;21.36;32.19;102507.19;5010454;28;20136;-66
2022/03/08 05:55:17;;;;;;;2.50;2.05;;;;;;;21.28;32.11;102507.09;5011960;28;20049;-65
2022/03/08 05:57:43;;;;;;;2.63;2.42;;;;;;;21.42;32.23;102500.44;5013771;28;20578;-66
2022/03/08 06:00:10;;;;;;;3.53;2.60;;;;;;;21.78;31.74;102501.28;5009705;28;20416;-65
2022/03/08 06:02:38;;;;;;;3.43;2.17;;;;;;;22.25;30.71;102493.88;5012313;28;20088;-66
2022/03/08 06:05:04;;;;;;;4.50;2.40;;;;;;;22.60;30.51;102508.88;5008215;28;20485;-66
2022/03/08 06:07:30;;;;;;;4.05;2.30;;;;;;;22.68;30.17;102500.13;5013611;28;20040;-65
2022/03/08 06:09:55;;;;;;;3.00;2.40;;;;;;;22.63;30.12;102507.75;5013504;28;20661;-65
2022/03/08 06:12:21;;;;;;;3.35;2.60;;;;;;;22.48;30.38;102511.97;5006153;28;20037;-65
2022/03/08 06:14:47;;;;;;;3.40;2.42;;;;;;;22.26;31.05;102510.63;5011075;28;20567;-65
2022/03/08 06:17:12;;;;;;;2.97;2.30;;;;;;;22.06;31.39;102512.66;5007729;28;20049;-65
2022/03/08 06:19:38;;;;;;;3.85;2.60;;;;;;;21.90;31.41;102520.44;5011725;28;20033;-65
2022/03/08 06:22:04;;;;;;;3.00;2.33;;;;;;;21.77;31.55;102525.31;5008254;28;20049;-65
2022/03/08 06:24:30;;;;;;;3.50;2.20;;;;;;;21.60;31.96;102524.31;5014983;28;20480;-65
2022/03/08 06:26:57;;;;;;;3.15;2.28;;;;;;;21.48;32.27;102522.88;5014185;28;20079;-65
2022/03/08 06:29:22;;;;;;;3.78;2.67;;;;;;;21.42;32.36;102526.97;5010450;28;20041;-65
2022/03/08 06:31:48;;;;;;;3.05;2.30;;;;;;;21.37;32.47;102532.72;5012315;28;20048;-65
2022/03/08 06:34:14;;;;;;;2.97;2.20;;;;;;;21.30;32.33;102528.13;5006972;28;20072;-65
2022/03/08 06:36:41;;;;;;;3.00;2.30;;;;;;;21.24;32.67;102526.06;5011174;28;20096;-65
2022/03/08 06:39:07;;;;;;;2.88;2.47;;;;;;;21.30;32.61;102528.13;5008875;28;20037;-65
2022/03/08 06:41:32;;;;;;;2.92;2.35;;;;;;;21.52;32.10;102527.72;5007842;28;20115;-65
2022/03/08 06:44:00;;;;;;;4.22;2.42;;;;;;;21.96;31.58;102531.28;5009549;28;20547;-65
2022/03/08 06:46:26;;;;;;;3.90;2.90;;;;;;;22.27;30.88;102521.13;5009262;28;20033;-65
2022/03/08 06:48:51;;;;;;;3.33;2.50;;;;;;;22.53;30.93;102523.78;5009126;28;20049;-65
2022/03/08 06:51:17;;;;;;;3.22;2.58;;;;;;;22.44;30.60;102531.81;5009922;28;20042;-65
2022/03/08 06:53:43;;;;;;;4.05;2.60;;;;;;;22.29;30.84;102531.59;5010748;28;20072;-65
2022/03/08 06:56:10;;;;;;;3.60;2.47;;;;;;;22.13;30.88;102537.59;5006379;28;20717;-65
2022/03/08 06:58:35;;;;;;;4.13;3.10;;;;;;;21.99;31.24;102540.75;5006949;28;20041;-69
2022/03/08 07:01:01;;;;;;;3.88;2.25;;;;;;;21.80;31.31;102536.44;5007754;28;20046;-69
2022/03/08 07:03:26;;;;;;;5.75;2.95;;;;;;;21.76;31.56;102542.22;5006473;28;20029;-69
2022/03/08 07:05:52;;;;;;;4.35;2.85;;;;;;;21.64;31.89;102539.78;5013114;28;20045;-67
2022/03/08 07:08:18;;;;;;;3.58;2.90;;;;;;;21.61;32.03;102540.06;5009349;28;20599;-69
2022/03/08 07:10:44;;;;;;;3.97;2.80;;;;;;;21.52;31.92;102540.97;5009042;28;20046;-66
2022/03/08 07:13:09;;;;;;;4.03;2.60;;;;;;;21.42;32.18;102541.03;5005748;28;20041;-69
2022/03/08 07:15:35;;;;;;;4.13;2.50;;;;;;;21.32;32.16;102542.91;5003038;28;20037;-68
2022/03/08 07:18:00;;;;;;;3.22;2.50;;;;;;;21.28;32.37;102543.34;5007146;28;20045;-67
2022/03/08 07:20:26;;;;;;;3.42;2.40;;;;;;;21.18;32.52;102545.16;5010940;28;20041;-67
2022/03/08 07:22:52;;;;;;;3.90;2.60;;;;;;;21.06;32.80;102549.84;4996233;28;20042;-69
2022/03/08 07:25:17;;;;;;;4.00;3.10;;;;;;;20.99;32.96;102546.94;5008533;28;20034;-68
2022/03/08 07:27:43;;;;;;;5.50;2.70;;;;;;;20.97;32.88;102553.34;5014757;28;20061;-66
2022/03/08 07:30:10;;;;;;;4.28;2.53;;;;;;;21.18;32.53;102545.16;5003570;28;20346;-67
2022/03/08 07:32:36;;;;;;;3.63;2.67;;;;;;;21.34;32.37;102545.41;5011906;28;20972;-66
2022/03/08 07:35:02;;;;;;;4.20;2.42;;;;;;;21.38;31.95;102550.28;5009318;28;20037;-66
2022/03/08 07:37:27;;;;;;;3.75;2.90;;;;;;;21.35;32.04;102555.00;5009789;28;20395;-66
2022/03/08 07:39:54;;;;;;;3.47;2.40;;;;;;;21.25;32.52;102557.72;5009090;28;20753;-66
2022/03/08 07:42:20;;;;;;;2.67;2.40;;;;;;;21.18;32.49;102546.00;5003024;28;20045;-66
2022/03/08 07:44:45;;;;;;;4.28;2.50;;;;;;;21.15;32.50;102553.41;5007950;28;20042;-66
2022/03/08 07:47:11;;;;;;;3.63;2.67;;;;;;;21.09;32.73;102544.25;5005414;28;20037;-66
2022/03/08 07:49:37;;;;;;;3.72;2.90;;;;;;;21.07;32.60;102549.69;5011263;28;20038;-66
2022/03/08 07:52:02;;;;;;;3.90;2.80;;;;;;;21.03;32.63;102553.63;5008624;28;20559;-67
2022/03/08 07:54:28;;;;;;;3.92;2.80;;;;;;;21.00;32.75;102551.25;5007198;28;20066;-66
2022/03/08 07:56:54;;;;;;;3.83;2.80;;;;;;;21.01;32.92;102558.25;5006018;28;20042;-66
2022/03/08 07:59:19;;;;;;;4.10;2.95;;;;;;;21.04;32.88;102557.94;5001032;28;20444;-69
2022/03/08 08:01:45;;;;;;;4.22;2.60;;;;;;;21.73;32.34;102553.97;4975666;28;20038;-75
2022/03/08 08:04:10;;;;;;;3.08;2.75;;;;;;;22.31;31.38;102556.97;5003580;28;20053;-74
2022/03/08 08:06:36;;;;;;;8.15;2.65;;;;;;;22.79;30.82;102546.81;5007256;28;20490;-75
2022/03/08 08:09:02;;;;;;;3.70;2.50;;;;;;;23.19;30.24;102549.72;4988917;28;20044;-70
2022/03/08 08:11:28;;;;;;;3.78;2.80;;;;;;;23.11;30.72;102551.47;5006539;28;20091;-77
2022/03/08 08:13:54;;;;;;;2.97;2.25;;;;;;;23.03;30.76;102546.16;5005463;28;20456;-67
2022/03/08 08:16:20;;;;;;;3.05;2.50;;;;;;;23.04;31.11;102553.13;4980544;28;20125;-69
2022/03/08 08:18:49;;;;;;;4.43;2.60;;;;;;;22.99;31.12;102555.44;4991291;28;20524;-69
2022/03/08 08:21:15;;;;;;;3.63;2.80;;;;;;;22.90;31.33;102539.44;5007662;28;20054;-68
2022/03/08 08:23:41;;;;;;;2.88;2.45;;;;;;;22.87;31.21;102555.69;4981619;28;20112;-69
2022/03/08 08:26:07;;;;;;;3.22;2.42;;;;;;;22.82;31.71;102550.03;5007679;28;20030;-70
2022/03/08 08:28:32;;;;;;;5.18;2.70;;;;;;;22.71;31.89;102539.66;4985385;28;20042;-70
2022/03/08 08:30:58;;;;;;;4.55;2.70;;;;;;;22.78;31.62;102548.63;5007381;28;20052;-71
2022/03/08 08:33:23;;;;;;;4.65;2.97;;;;;;;22.71;32.00;102544.97;4972903;28;20064;-72
2022/03/08 08:35:49;;;;;;;4.10;2.40;;;;;;;22.69;32.29;102549.59;5010402;28;20061;-69
2022/03/08 08:38:14;;;;;;;3.92;2.65;;;;;;;22.77;32.04;102548.78;4968965;28;20034;-70
2022/03/08 08:40:40;;;;;;;3.63;2.85;;;;;;;22.70;32.26;102548.59;5013203;28;20113;-66
2022/03/08 08:43:06;;;;;;;4.38;2.58;;;;;;;22.50;32.40;102548.00;4973329;28;20578;-71
2022/03/08 08:45:34;;;;;;;3.25;2.40;;;;;;;22.39;32.74;102558.00;5011996;28;20033;-64
2022/03/08 08:48:03;;;;;;;14.70;3.38;;;;;;;22.28;32.98;102554.63;4974546;28;20038;-66
2022/03/08 08:50:28;;;;;;;2.80;2.38;;;;;;;22.23;32.74;102548.94;4999965;28;20061;-67
2022/03/08 08:52:55;;;;;;;3.92;2.72;;;;;;;22.20;32.82;102548.41;5015101;28;20127;-66
2022/03/08 08:55:25;;;;;;;5.63;3.05;;;;;;;22.19;32.87;102544.94;4970989;28;20561;-69
2022/03/08 08:57:51;;;;;;;3.22;2.65;;;;;;;22.22;32.91;102554.41;5016701;28;20111;-66
2022/03/08 09:00:16;;;;;;;2.85;2.35;;;;;;;22.18;32.90;102553.88;4979124;28;20050;-68
2022/03/08 09:02:43;;;;;;;3.92;2.72;;;;;;;22.19;32.78;102549.41;5007318;28;20041;-65
2022/03/08 09:05:11;;;;;;;3.22;2.70;;;;;;;22.11;32.94;102544.06;4986138;28;20440;-66
2022/03/08 09:07:37;;;;;;;3.35;2.40;;;;;;;22.07;32.93;102543.50;5004118;28;20060;-65
2022/03/08 09:10:04;;;;;;;8.40;3.72;;;;;;;21.95;31.90;102532.28;5014548;28;20351;-67
2022/03/08 09:12:29;;;;;;;5.40;2.90;;;;;;;22.16;31.63;102520.53;4987069;28;20041;-72
2022/03/08 09:14:55;;;;;;;5.35;2.92;;;;;;;22.21;33.06;102531.50;5017056;28;20052;-65
2022/03/08 09:17:21;;;;;;;4.05;2.70;;;;;;;22.27;32.52;102526.44;4986273;28;20087;-67
2022/03/08 09:19:47;;;;;;;3.72;3.10;;;;;;;22.31;31.87;102519.00;5009615;28;20042;-74
2022/03/08 09:22:13;;;;;;;6.18;3.10;;;;;;;22.31;32.05;102513.69;4975646;28;20046;-75
2022/03/08 09:24:39;;;;;;;4.85;3.30;;;;;;;22.24;31.50;102508.16;5012895;28;20057;-74
2022/03/08 09:27:05;;;;;;;4.32;2.80;;;;;;;22.29;31.83;102513.84;4987548;28;20087;-72
2022/03/08 09:29:31;;;;;;;5.13;3.20;;;;;;;22.33;31.80;102509.06;5014739;28;20045;-71
2022/03/08 09:31:56;;;;;;;5.18;3.15;;;;;;;22.33;31.79;102501.09;4986803;28;21453;-73
2022/03/08 09:34:22;;;;;;;5.60;3.60;;;;;;;22.21;30.89;102499.66;5009775;28;20110;-71
2022/03/08 09:36:47;;;;;;;4.00;2.90;;;;;;;22.11;31.27;102472.41;4995066;28;20046;-71
2022/03/08 09:39:13;;;;;;;4.82;3.13;;;;;;;22.20;31.12;102496.19;4997547;28;20037;-70
2022/03/08 09:41:40;;;;;;;4.43;2.92;;;;;;;22.24;31.30;102486.91;5010788;28;20053;-69
2022/03/08 09:44:11;;;;;;;6.72;3.10;;;;;;;22.32;31.19;102486.16;4991432;28;20597;-69
2022/03/08 09:46:36;;;;;;;5.53;3.38;;;;;;;22.22;30.96;102494.19;5012557;28;20041;-69
2022/03/08 09:49:02;;;;;;;4.85;3.55;;;;;;;22.11;31.21;102475.91;4989007;28;20038;-72
2022/03/08 09:51:28;;;;;;;5.05;3.42;;;;;;;22.20;31.21;102477.59;5007716;28;20057;-67
2022/03/08 09:53:54;;;;;;;4.18;2.83;;;;;;;22.18;31.17;102471.63;4986727;28;20034;-69
2022/03/08 09:56:20;;;;;;;5.07;3.40;;;;;;;22.04;31.20;102474.81;5007862;28;20092;-65
2022/03/08 09:58:46;;;;;;;4.95;3.70;;;;;;;21.90;31.03;102470.03;5008968;28;20033;-66
2022/03/08 10:01:12;;;;;;;5.22;3.63;;;;;;;21.49;30.80;102476.81;4988907;28;20929;-66
2022/03/08 10:03:40;;;;;;;5.18;3.53;;;;;;;21.69;31.06;102473.03;5009289;28;20053;-73
2022/03/08 10:06:07;;;;;;;5.57;3.33;;;;;;;21.72;31.07;102443.56;4992515;28;20045;-70
2022/03/08 10:08:32;;;;;;;4.10;3.00;;;;;;;21.78;31.36;102468.66;5006607;28;20050;-67
2022/03/08 10:11:11;;;;;;;4.43;3.00;;;;;;;21.91;31.55;102461.13;4988291;28;20479;-67
2022/03/08 10:13:44;;;;;;;3.63;2.80;;;;;;;21.99;31.56;102459.34;5003751;28;20037;-71
2022/03/08 10:16:23;;;;;;;4.07;2.90;;;;;;;22.12;31.31;102464.31;5012253;28;20396;-75
2022/03/08 10:18:51;;;;;;;3.17;2.60;;;;;;;22.11;31.81;102444.06;4991079;28;20112;-72
2022/03/08 10:21:57;;;;;;;4.68;2.70;;;;;;;22.16;31.90;102456.84;5012759;28;20038;-71
2022/03/08 10:24:29;;;;;;;3.88;2.55;;;;;;;22.15;31.72;102444.59;5010693;28;20045;-71
2022/03/08 10:26:57;;;;;;;3.40;2.50;;;;;;;22.21;31.87;102443.94;4984861;28;20073;-74
2022/03/08 10:29:24;;;;;;;3.58;2.50;;;;;;;22.19;31.57;102435.31;5006272;28;20067;-74
2022/03/08 10:32:03;;;;;;;5.10;2.63;;;;;;;22.06;31.67;102441.03;5012967;28;20051;-66
2022/03/08 10:34:29;;;;;;;3.00;2.53;;;;;;;22.13;32.03;102431.47;4990608;28;20144;-73
2022/03/08 10:37:24;;;;;;;3.55;2.17;;;;;;;22.15;32.05;102437.44;5013812;28;20074;-76
2022/03/08 10:39:51;;;;;;;3.08;2.20;;;;;;;22.14;32.04;102427.00;4993714;28;20049;-74
2022/03/08 10:42:25;;;;;;;4.53;2.22;;;;;;;22.19;32.23;102432.66;5014149;28;20048;-69
2022/03/08 10:44:59;;;;;;;2.65;2.17;;;;;;;22.13;32.02;102430.66;4974915;28;20487;-74
2022/03/08 10:47:26;;;;;;;2.35;2.10;;;;;;;22.19;31.80;102427.34;5015419;28;20431;-79
2022/03/08 10:49:54;;;;;;;2.47;2.00;;;;;;;22.20;32.12;102435.16;4986123;28;20042;-73
2022/03/08 10:52:32;;;;;;;2.30;2.00;;;;;;;22.13;32.47;102430.66;5017712;28;20048;-76
2022/03/08 10:55:18;;;;;;;3.47;2.10;;;;;;;22.20;32.15;102429.00;4986747;28;20041;-74
2022/03/08 10:57:54;;;;;;;3.05;2.28;;;;;;;22.22;32.09;102432.34;5009885;28;20038;-73
2022/03/08 11:00:27;;;;;;;4.28;2.55;;;;;;;22.13;32.25;102420.84;4973264;28;20029;-65
2022/03/08 11:02:59;;;;;;;2.75;2.17;;;;;;;22.02;32.65;102431.69;5012265;28;20044;-68
2022/03/08 11:05:31;;;;;;;2.10;1.90;;;;;;;22.20;32.63;102426.38;4985202;28;20649;-73
2022/03/08 11:07:57;;;;;;;3.47;2.22;;;;;;;22.25;32.05;102424.06;5009388;28;20052;-74
2022/03/08 11:10:24;;;;;;;2.05;1.85;;;;;;;22.46;32.10;102413.09;4986268;28;20651;-71
2022/03/08 11:12:50;;;;;;;2.05;1.85;;;;;;;22.55;31.93;102404.97;5005372;28;20594;-76
2022/03/08 11:15:18;;;;;;;2.72;2.00;;;;;;;22.55;31.96;102414.75;4987643;28;20034;-73
2022/03/08 11:17:46;;;;;;;2.38;1.90;;;;;;;22.53;32.14;102406.13;4998595;28;20168;-75
2022/03/08 11:20:12;;;;;;;2.00;1.80;;;;;;;22.63;31.71;102403.38;5009418;28;20041;-74
2022/03/08 11:22:39;;;;;;;4.45;2.72;;;;;;;21.96;29.72;102411.09;4982438;28;20072;-65